createdAt,value
2022-09-29T00:01:04.881Z,14.30
2022-09-29T00:03:31.642Z,14.30
2022-09-29T00:05:58.791Z,14.30
2022-09-29T00:08:26.935Z,14.30
2022-09-29T00:10:53.597Z,14.20
2022-09-29T00:13:20.341Z,14.20
2022-09-29T00:15:55.323Z,14.20
2022-09-29T00:18:22.010Z,14.30
2022-09-29T00:20:56.166Z,14.30
2022-09-29T00:23:26.045Z,14.30
2022-09-29T00:26:03.671Z,14.30
2022-09-29T00:28:31.019Z,14.20
2022-09-29T00:30:58.260Z,14.20
2022-09-29T00:33:24.919Z,14.20
2022-09-29T00:35:59.168Z,14.20
2022-09-29T00:38:26.044Z,14.20
2022-09-29T00:40:52.824Z,14.10
2022-09-29T00:43:21.355Z,14.10
2022-09-29T00:45:48.667Z,14.10
2022-09-29T00:48:17.988Z,14.00
2022-09-29T00:50:46.126Z,13.90
2022-09-29T00:53:19.164Z,13.90
2022-09-29T00:55:57.995Z,13.90
2022-09-29T00:58:33.666Z,13.80
2022-09-29T01:01:00.661Z,13.80
2022-09-29T01:03:30.034Z,13.80
2022-09-29T01:06:01.775Z,13.80
2022-09-29T01:08:31.157Z,13.90
2022-09-29T01:10:58.359Z,13.90
2022-09-29T01:13:25.073Z,13.90
2022-09-29T01:15:51.781Z,13.90
2022-09-29T01:18:18.535Z,14.00
2022-09-29T01:20:53.190Z,14.00
2022-09-29T01:23:34.123Z,14.00
2022-09-29T01:26:06.984Z,14.00
2022-09-29T01:28:45.865Z,14.00
2022-09-29T01:31:12.640Z,13.90
2022-09-29T01:33:43.764Z,13.90
2022-09-29T01:36:29.157Z,13.80
2022-09-29T01:38:55.855Z,13.90
2022-09-29T01:41:25.356Z,13.90
2022-09-29T01:44:02.333Z,13.90
2022-09-29T01:46:38.228Z,13.90
2022-09-29T01:49:06.190Z,13.90
2022-09-29T01:51:38.959Z,14.00
2022-09-29T01:54:08.622Z,13.90
2022-09-29T01:56:43.217Z,13.90
2022-09-29T01:59:17.078Z,13.90
2022-09-29T02:01:45.428Z,13.90
2022-09-29T02:04:21.425Z,13.80
2022-09-29T02:06:56.080Z,13.80
2022-09-29T02:09:27.064Z,13.80
2022-09-29T02:11:54.578Z,13.70
2022-09-29T02:14:25.995Z,13.60
2022-09-29T02:16:55.470Z,13.50
2022-09-29T02:19:27.132Z,13.40
2022-09-29T02:21:54.603Z,13.30
2022-09-29T02:24:22.411Z,13.20
2022-09-29T02:26:49.322Z,13.20
2022-09-29T02:29:16.569Z,13.10
2022-09-29T02:31:44.364Z,13.00
2022-09-29T02:34:13.230Z,13.00
2022-09-29T02:37:02.591Z,12.90
2022-09-29T02:39:29.331Z,12.90
2022-09-29T02:42:13.725Z,12.80
2022-09-29T02:44:40.351Z,12.80
2022-09-29T02:47:10.008Z,12.90
2022-09-29T02:49:43.311Z,12.90
2022-09-29T02:52:17.136Z,12.90
2022-09-29T02:54:43.821Z,12.90
2022-09-29T02:57:24.350Z,13.00
2022-09-29T03:00:13.953Z,13.00
2022-09-29T03:02:41.598Z,13.00
2022-09-29T03:05:10.278Z,13.00
2022-09-29T03:07:40.267Z,13.10
2022-09-29T03:10:07.871Z,13.10
2022-09-29T03:12:34.833Z,13.10
2022-09-29T03:15:01.850Z,13.10
2022-09-29T03:17:28.539Z,13.20
2022-09-29T03:19:55.783Z,13.20
2022-09-29T03:22:22.507Z,13.20
2022-09-29T03:24:49.186Z,13.20
2022-09-29T03:27:15.820Z,13.20
2022-09-29T03:29:42.646Z,13.20
2022-09-29T03:32:09.291Z,13.20
2022-09-29T03:34:36.187Z,13.20
2022-09-29T03:37:02.928Z,13.20
2022-09-29T03:39:29.586Z,13.20
2022-09-29T03:41:56.280Z,13.20
2022-09-29T03:44:22.957Z,13.20
2022-09-29T03:46:49.593Z,13.30
2022-09-29T03:49:16.371Z,13.20
2022-09-29T03:51:43.210Z,13.20
2022-09-29T03:54:10.078Z,13.10
2022-09-29T03:56:37.455Z,13.10
2022-09-29T03:59:09.391Z,13.00
2022-09-29T04:01:38.174Z,13.00
2022-09-29T04:04:05.673Z,13.00
2022-09-29T04:06:32.341Z,13.00
2022-09-29T04:08:58.987Z,13.00
2022-09-29T04:11:25.677Z,13.10
2022-09-29T04:13:52.726Z,13.00
2022-09-29T04:16:19.419Z,13.00
2022-09-29T04:18:46.110Z,13.10
2022-09-29T04:21:12.859Z,13.10
2022-09-29T04:23:39.559Z,13.10
2022-09-29T04:26:06.218Z,13.10
2022-09-29T04:28:33.630Z,13.00
2022-09-29T04:31:00.328Z,12.80
2022-09-29T04:33:27.132Z,12.90
2022-09-29T04:35:53.819Z,12.80
2022-09-29T04:38:20.474Z,12.80
2022-09-29T04:40:47.721Z,12.80
2022-09-29T04:43:14.405Z,12.70
2022-09-29T04:45:41.302Z,12.50
2022-09-29T04:48:07.965Z,12.50
2022-09-29T04:50:34.726Z,12.40
2022-09-29T04:53:01.386Z,12.40
2022-09-29T04:55:28.204Z,12.30
2022-09-29T04:57:54.992Z,12.30
2022-09-29T05:00:21.664Z,12.40
2022-09-29T05:02:49.919Z,12.40
2022-09-29T05:05:16.886Z,12.60
2022-09-29T05:07:44.566Z,12.70
2022-09-29T05:10:11.609Z,12.80
2022-09-29T05:12:38.321Z,12.90
2022-09-29T05:15:06.266Z,12.90
2022-09-29T05:17:33.388Z,13.00
2022-09-29T05:20:00.127Z,13.00
2022-09-29T05:22:26.884Z,13.00
2022-09-29T05:24:53.682Z,13.00
2022-09-29T05:27:21.965Z,12.90
2022-09-29T05:29:49.185Z,13.00
2022-09-29T05:32:16.089Z,13.00
2022-09-29T05:34:43.646Z,13.00
2022-09-29T05:37:10.402Z,13.10
2022-09-29T05:39:37.683Z,13.10
2022-09-29T05:42:06.542Z,13.10
2022-09-29T05:44:36.162Z,13.20
2022-09-29T05:47:02.935Z,13.20
2022-09-29T05:49:32.076Z,13.20
2022-09-29T05:51:59.625Z,13.20
2022-09-29T05:54:27.569Z,13.20
2022-09-29T05:56:54.514Z,13.20
2022-09-29T05:59:21.352Z,13.20
2022-09-29T06:01:48.175Z,13.20
2022-09-29T06:04:15.506Z,13.20
2022-09-29T06:06:42.157Z,13.20
2022-09-29T06:09:08.857Z,13.20
2022-09-29T06:11:35.619Z,13.20
2022-09-29T06:14:03.014Z,13.20
2022-09-29T06:16:30.513Z,13.20
2022-09-29T06:18:58.344Z,13.20
2022-09-29T06:21:26.518Z,13.20
2022-09-29T06:23:56.510Z,13.20
2022-09-29T06:26:24.600Z,13.20
2022-09-29T06:28:52.067Z,13.20
2022-09-29T06:31:20.468Z,13.30
2022-09-29T06:33:47.301Z,13.30
2022-09-29T06:36:36.843Z,13.40
2022-09-29T06:39:05.014Z,13.40
2022-09-29T06:41:31.893Z,13.40
2022-09-29T06:43:58.540Z,13.40
2022-09-29T06:46:26.998Z,13.40
2022-09-29T06:48:54.342Z,13.40
2022-09-29T06:51:23.022Z,13.50
2022-09-29T06:53:51.081Z,13.50
2022-09-29T06:56:18.970Z,13.50
2022-09-29T06:58:46.190Z,13.60
2022-09-29T07:01:13.156Z,13.70
2022-09-29T07:03:40.096Z,13.70
2022-09-29T07:06:19.300Z,13.80
2022-09-29T07:08:46.741Z,13.90
2022-09-29T07:11:13.557Z,13.90
2022-09-29T07:13:40.240Z,14.00
2022-09-29T07:16:08.097Z,14.00
2022-09-29T07:18:35.567Z,14.10
2022-09-29T07:21:02.235Z,14.20
2022-09-29T07:23:29.095Z,14.40
2022-09-29T07:25:55.987Z,14.50
2022-09-29T07:28:23.114Z,14.60
2022-09-29T07:31:09.134Z,14.80
2022-09-29T07:33:39.737Z,14.90
2022-09-29T07:36:06.865Z,15.00
2022-09-29T07:38:33.595Z,15.10
2022-09-29T07:41:04.459Z,15.20
2022-09-29T07:43:31.773Z,15.30
2022-09-29T07:46:00.452Z,15.40
2022-09-29T07:48:31.390Z,15.50
2022-09-29T07:51:02.775Z,15.70
2022-09-29T07:53:30.516Z,15.90
2022-09-29T07:56:01.806Z,16.20
2022-09-29T07:58:28.591Z,16.40
2022-09-29T08:00:55.586Z,16.60
2022-09-29T08:03:22.499Z,16.80
2022-09-29T08:05:49.269Z,17.00
2022-09-29T08:08:15.947Z,17.10
2022-09-29T08:10:51.561Z,17.20
2022-09-29T08:13:19.888Z,17.30
2022-09-29T08:15:46.711Z,17.60
2022-09-29T08:18:13.428Z,17.70
2022-09-29T08:20:40.155Z,17.90
2022-09-29T08:23:07.015Z,18.10
2022-09-29T08:25:35.317Z,18.30
2022-09-29T08:28:02.341Z,18.50
2022-09-29T08:30:29.364Z,18.70
2022-09-29T08:32:56.789Z,18.90
2022-09-29T08:35:23.778Z,19.00
2022-09-29T08:37:50.485Z,19.10
2022-09-29T08:40:17.921Z,19.20
2022-09-29T08:43:03.837Z,19.30
2022-09-29T08:45:32.540Z,19.40
2022-09-29T08:48:13.784Z,19.40
2022-09-29T08:50:56.861Z,19.30
2022-09-29T08:53:28.702Z,19.40
2022-09-29T08:55:56.000Z,19.40
2022-09-29T08:58:22.727Z,19.20
2022-09-29T09:00:52.512Z,18.90
2022-09-29T09:03:41.053Z,18.80
2022-09-29T09:06:07.775Z,18.80
2022-09-29T09:08:37.590Z,18.90
2022-09-29T09:11:22.821Z,18.90
2022-09-29T09:14:07.901Z,19.10
2022-09-29T09:16:37.779Z,19.00
2022-09-29T09:19:23.532Z,18.90
2022-09-29T09:21:55.404Z,19.10
2022-09-29T09:24:25.575Z,19.20
2022-09-29T09:26:52.399Z,19.30
2022-09-29T09:29:22.200Z,19.50
2022-09-29T09:31:53.235Z,19.40
2022-09-29T09:34:35.213Z,19.50
2022-09-29T09:37:08.766Z,19.70
2022-09-29T09:39:37.560Z,19.80
2022-09-29T09:42:08.502Z,19.70
2022-09-29T09:44:40.076Z,19.70
2022-09-29T09:47:18.674Z,19.70
2022-09-29T09:49:48.435Z,20.00
2022-09-29T09:52:18.307Z,19.90
2022-09-29T09:54:46.553Z,20.00
2022-09-29T09:57:16.124Z,20.10
2022-09-29T10:00:01.506Z,20.00
2022-09-29T10:02:29.874Z,19.90
2022-09-29T10:04:56.942Z,19.50
2022-09-29T10:07:25.197Z,19.50
2022-09-29T10:09:52.481Z,19.50
2022-09-29T10:12:20.488Z,19.90
2022-09-29T10:14:52.140Z,20.10
2022-09-29T10:17:20.806Z,20.20
2022-09-29T10:20:01.163Z,20.30
2022-09-29T10:22:29.007Z,20.30
2022-09-29T10:25:14.066Z,20.50
2022-09-29T10:27:42.330Z,20.60
2022-09-29T10:30:29.386Z,20.50
2022-09-29T10:32:59.073Z,20.60
2022-09-29T10:35:32.497Z,20.60
2022-09-29T10:38:05.641Z,20.90
2022-09-29T10:40:32.450Z,20.80
2022-09-29T10:42:59.283Z,20.60
2022-09-29T10:45:32.568Z,20.60
2022-09-29T10:47:59.184Z,20.40
2022-09-29T10:50:27.496Z,20.50
2022-09-29T10:52:55.790Z,20.50
2022-09-29T10:55:32.898Z,20.50
2022-09-29T10:58:01.241Z,20.90
2022-09-29T11:00:31.009Z,21.00
2022-09-29T11:03:16.305Z,21.10
2022-09-29T11:06:02.066Z,21.10
2022-09-29T11:08:28.775Z,21.30
2022-09-29T11:11:06.622Z,21.60
2022-09-29T11:13:38.128Z,21.80
2022-09-29T11:16:06.854Z,21.80
2022-09-29T11:18:35.456Z,21.70
2022-09-29T11:21:22.404Z,21.80
2022-09-29T11:23:51.819Z,21.70
2022-09-29T11:26:18.582Z,22.00
2022-09-29T11:28:51.170Z,22.10
2022-09-29T11:31:40.501Z,22.10
2022-09-29T11:34:19.163Z,21.90
2022-09-29T11:37:18.050Z,21.50
2022-09-29T11:40:01.446Z,21.90
2022-09-29T11:42:34.799Z,22.40
2022-09-29T11:45:03.491Z,21.90
2022-09-29T11:47:49.035Z,21.70
2022-09-29T11:50:31.979Z,21.80
2022-09-29T11:53:18.718Z,21.90
2022-09-29T11:55:51.726Z,21.80
2022-09-29T11:58:21.504Z,21.60
2022-09-29T12:01:06.539Z,21.80
2022-09-29T12:03:47.170Z,22.40
2022-09-29T12:06:15.117Z,22.80
2022-09-29T12:08:57.129Z,22.90
2022-09-29T12:11:47.475Z,22.80
2022-09-29T12:14:13.586Z,22.70
2022-09-29T12:16:45.441Z,22.90
2022-09-29T12:19:15.230Z,22.80
2022-09-29T12:21:42.014Z,22.70
2022-09-29T12:24:17.648Z,22.60
2022-09-29T12:26:45.673Z,22.50
2022-09-29T12:29:12.264Z,22.40
2022-09-29T12:31:41.911Z,21.90
2022-09-29T12:34:14.625Z,21.90
2022-09-29T12:36:52.377Z,21.70
2022-09-29T12:39:35.674Z,21.40
2022-09-29T12:42:06.101Z,21.60
2022-09-29T12:44:38.367Z,21.80
2022-09-29T12:47:10.076Z,21.80
2022-09-29T12:49:50.334Z,21.80
2022-09-29T12:52:23.055Z,21.70
2022-09-29T12:54:55.409Z,21.90
2022-09-29T12:57:22.038Z,21.90
2022-09-29T13:00:04.325Z,22.00
2022-09-29T13:02:45.244Z,22.00
2022-09-29T13:05:30.683Z,21.90
2022-09-29T13:08:19.294Z,21.80
2022-09-29T13:11:18.492Z,21.70
2022-09-29T13:13:51.027Z,21.60
2022-09-29T13:16:17.730Z,21.50
2022-09-29T13:18:59.907Z,21.40
2022-09-29T13:21:29.943Z,21.30
2022-09-29T13:23:59.707Z,21.20
2022-09-29T13:26:44.951Z,21.00
2022-09-29T13:29:18.095Z,20.90
2022-09-29T13:31:46.203Z,20.60
2022-09-29T13:34:32.803Z,20.40
2022-09-29T13:37:25.692Z,20.20
2022-09-29T13:39:59.431Z,20.00
2022-09-29T13:42:49.309Z,19.70
2022-09-29T13:45:31.689Z,19.40
2022-09-29T13:48:01.866Z,19.30
2022-09-29T13:50:41.074Z,19.10
2022-09-29T13:53:20.455Z,18.90
2022-09-29T13:56:02.358Z,18.80
2022-09-29T13:58:56.380Z,18.80
2022-09-29T14:01:31.766Z,18.80
2022-09-29T14:03:59.141Z,18.70
2022-09-29T14:06:43.497Z,18.70
2022-09-29T14:09:15.943Z,18.70
2022-09-29T14:11:52.780Z,18.70
2022-09-29T14:14:45.830Z,18.60
2022-09-29T14:17:19.845Z,18.60
2022-09-29T14:19:52.842Z,18.50
2022-09-29T14:22:31.708Z,18.50
2022-09-29T14:25:10.920Z,18.50
2022-09-29T14:27:47.721Z,18.50
2022-09-29T14:30:41.272Z,18.60
2022-09-29T14:33:29.954Z,18.70
2022-09-29T14:36:00.176Z,18.90
2022-09-29T14:38:29.962Z,19.10
2022-09-29T14:40:57.976Z,19.30
2022-09-29T14:43:26.420Z,19.50
2022-09-29T14:46:14.757Z,19.70
2022-09-29T14:49:19.165Z,19.90
2022-09-29T14:51:58.265Z,20.20
2022-09-29T14:54:29.484Z,20.40
2022-09-29T14:57:03.544Z,20.60
2022-09-29T14:59:35.520Z,20.70
2022-09-29T15:02:11.515Z,20.80
2022-09-29T15:04:39.385Z,20.70
2022-09-29T15:07:11.171Z,20.80
2022-09-29T15:09:38.592Z,20.70
2022-09-29T15:12:15.160Z,20.50
2022-09-29T15:14:42.242Z,20.30
2022-09-29T15:17:18.962Z,20.00
2022-09-29T15:20:08.092Z,20.10
2022-09-29T15:22:37.887Z,20.40
2022-09-29T15:25:21.567Z,20.60
2022-09-29T15:27:50.268Z,20.90
2022-09-29T15:30:18.451Z,21.30
2022-09-29T15:32:46.225Z,21.60
2022-09-29T15:35:14.438Z,21.60
2022-09-29T15:37:52.888Z,21.80
2022-09-29T15:40:24.243Z,21.90
2022-09-29T15:42:55.551Z,22.10
2022-09-29T15:45:23.840Z,22.00
2022-09-29T15:47:59.625Z,22.10
2022-09-29T15:50:26.810Z,22.10
2022-09-29T15:52:53.683Z,22.00
2022-09-29T15:55:26.700Z,21.90
2022-09-29T15:57:54.673Z,21.80
2022-09-29T16:00:21.341Z,21.70
2022-09-29T16:03:03.227Z,21.60
2022-09-29T16:05:35.299Z,21.50
2022-09-29T16:08:14.504Z,21.50
2022-09-29T16:10:49.543Z,21.40
2022-09-29T16:13:19.861Z,21.40
2022-09-29T16:15:48.411Z,21.40
2022-09-29T16:18:30.263Z,21.30
2022-09-29T16:20:59.918Z,21.20
2022-09-29T16:23:37.868Z,21.10
2022-09-29T16:26:07.406Z,21.00
2022-09-29T16:28:37.374Z,20.80
2022-09-29T16:31:05.551Z,20.70
2022-09-29T16:33:34.476Z,20.60
2022-09-29T16:36:03.317Z,20.30
2022-09-29T16:38:40.515Z,20.20
2022-09-29T16:41:09.609Z,20.10
2022-09-29T16:43:37.614Z,19.90
2022-09-29T16:46:06.932Z,19.70
2022-09-29T16:48:37.780Z,19.60
2022-09-29T16:51:12.298Z,19.50
2022-09-29T16:53:49.143Z,19.40
2022-09-29T16:56:25.589Z,19.20
2022-09-29T16:59:11.409Z,19.10
2022-09-29T17:01:41.671Z,19.00
2022-09-29T17:04:09.557Z,18.70
2022-09-29T17:06:36.598Z,18.60
2022-09-29T17:09:04.238Z,18.50
2022-09-29T17:11:31.034Z,18.30
2022-09-29T17:13:57.911Z,18.20
2022-09-29T17:16:25.298Z,18.00
2022-09-29T17:18:53.292Z,17.90
2022-09-29T17:21:20.372Z,17.80
2022-09-29T17:23:47.194Z,17.70
2022-09-29T17:26:52.879Z,17.60
2022-09-29T17:29:19.571Z,17.50
2022-09-29T17:31:46.215Z,17.40
2022-09-29T17:34:12.868Z,17.40
2022-09-29T17:36:39.705Z,17.30
2022-09-29T17:39:06.607Z,17.20
2022-09-29T17:41:33.964Z,17.10
2022-09-29T17:44:09.919Z,17.00
2022-09-29T17:46:37.380Z,16.90
2022-09-29T17:49:04.352Z,16.90
2022-09-29T17:51:31.069Z,16.80
2022-09-29T17:53:59.275Z,16.70
2022-09-29T17:56:26.313Z,16.70
2022-09-29T17:58:53.761Z,16.60
2022-09-29T18:01:21.609Z,16.60
2022-09-29T18:03:48.789Z,16.50
2022-09-29T18:06:22.610Z,16.40
2022-09-29T18:08:53.767Z,16.30
2022-09-29T18:11:22.120Z,16.30
2022-09-29T18:13:49.259Z,16.20
2022-09-29T18:16:17.166Z,16.10
2022-09-29T18:18:45.148Z,16.20
2022-09-29T18:21:12.733Z,16.10
2022-09-29T18:23:39.623Z,16.00
2022-09-29T18:26:06.546Z,15.90
2022-09-29T18:28:33.555Z,15.90
2022-09-29T18:31:11.608Z,15.70
2022-09-29T18:33:39.441Z,15.50
2022-09-29T18:36:06.177Z,15.50
2022-09-29T18:38:32.852Z,15.40
2022-09-29T18:40:59.550Z,15.40
2022-09-29T18:43:27.358Z,15.40
2022-09-29T18:45:55.154Z,15.40
2022-09-29T18:48:21.896Z,15.40
2022-09-29T18:50:49.658Z,15.40
2022-09-29T18:53:17.560Z,15.40
2022-09-29T18:55:44.503Z,15.40
2022-09-29T18:58:14.968Z,15.40
2022-09-29T19:00:43.551Z,15.40
2022-09-29T19:03:10.261Z,15.40
2022-09-29T19:05:40.320Z,15.40
2022-09-29T19:08:07.132Z,15.40
2022-09-29T19:10:36.423Z,15.30
2022-09-29T19:13:04.571Z,15.30
2022-09-29T19:15:34.672Z,15.30
2022-09-29T19:18:02.394Z,15.20
2022-09-29T19:20:30.007Z,15.20
2022-09-29T19:22:58.748Z,15.10
2022-09-29T19:25:28.907Z,15.10
2022-09-29T19:27:56.702Z,15.10
2022-09-29T19:30:24.634Z,15.00
2022-09-29T19:32:51.947Z,15.00
2022-09-29T19:35:20.947Z,14.90
2022-09-29T19:37:48.197Z,14.90
2022-09-29T19:40:16.857Z,14.80
2022-09-29T19:42:43.507Z,14.80
2022-09-29T19:45:10.403Z,14.80
2022-09-29T19:47:37.606Z,14.80
2022-09-29T19:50:26.077Z,14.70
2022-09-29T19:52:53.049Z,14.70
2022-09-29T19:55:20.527Z,14.60
2022-09-29T19:57:47.546Z,14.50
2022-09-29T20:00:16.071Z,14.50
2022-09-29T20:02:44.751Z,14.50
2022-09-29T20:05:11.663Z,14.50
2022-09-29T20:07:40.123Z,14.40
2022-09-29T20:10:08.416Z,14.40
2022-09-29T20:12:35.291Z,14.50
2022-09-29T20:15:02.046Z,14.40
2022-09-29T20:17:28.789Z,14.40
2022-09-29T20:19:55.499Z,14.40
2022-09-29T20:22:26.871Z,14.40
2022-09-29T20:24:57.248Z,14.40
2022-09-29T20:27:24.096Z,14.30
2022-09-29T20:29:50.860Z,14.30
2022-09-29T20:32:19.004Z,14.40
2022-09-29T20:34:45.930Z,14.40
2022-09-29T20:37:13.377Z,14.40
2022-09-29T20:39:40.117Z,14.30
2022-09-29T20:42:07.139Z,14.30
2022-09-29T20:44:33.913Z,14.30
2022-09-29T20:47:00.617Z,14.30
2022-09-29T20:49:27.531Z,14.30
2022-09-29T20:51:54.639Z,14.30
2022-09-29T20:54:21.511Z,14.40
2022-09-29T20:56:50.424Z,14.40
2022-09-29T20:59:18.740Z,14.40
2022-09-29T21:01:45.875Z,14.40
2022-09-29T21:04:13.761Z,14.40
2022-09-29T21:06:42.397Z,14.40
2022-09-29T21:09:13.878Z,14.50
2022-09-29T21:11:41.685Z,14.50
2022-09-29T21:14:12.434Z,14.50
2022-09-29T21:16:44.857Z,14.50
2022-09-29T21:19:12.751Z,14.50
2022-09-29T21:21:41.033Z,14.60
2022-09-29T21:24:08.681Z,14.60
2022-09-29T21:26:35.413Z,14.70
2022-09-29T21:29:02.712Z,14.80
2022-09-29T21:31:30.715Z,14.80
2022-09-29T21:33:58.819Z,14.90
2022-09-29T21:36:26.579Z,14.90
2022-09-29T21:38:53.250Z,15.00
2022-09-29T21:41:21.690Z,15.00
2022-09-29T21:43:49.208Z,14.90
2022-09-29T21:46:17.433Z,14.70
2022-09-29T21:48:44.852Z,14.50
2022-09-29T21:51:12.971Z,14.50
2022-09-29T21:53:40.125Z,14.40
2022-09-29T21:56:11.167Z,14.20
2022-09-29T21:58:38.463Z,14.20
2022-09-29T22:01:11.122Z,14.20
2022-09-29T22:03:39.520Z,14.10
2022-09-29T22:06:10.446Z,13.90
2022-09-29T22:08:37.097Z,13.80
2022-09-29T22:11:04.004Z,13.70
2022-09-29T22:13:30.805Z,13.80
2022-09-29T22:16:03.945Z,13.80
2022-09-29T22:18:41.319Z,13.70
2022-09-29T22:21:09.846Z,13.60
2022-09-29T22:23:36.667Z,13.60
2022-09-29T22:26:03.512Z,13.60
2022-09-29T22:28:30.706Z,13.50
2022-09-29T22:31:09.251Z,13.50
2022-09-29T22:33:36.596Z,13.40
2022-09-29T22:36:03.637Z,13.30
2022-09-29T22:38:30.445Z,13.20
2022-09-29T22:40:57.287Z,13.00
2022-09-29T22:43:23.942Z,13.00
2022-09-29T22:45:51.245Z,13.10
2022-09-29T22:48:18.787Z,13.20
2022-09-29T22:50:46.852Z,13.20
2022-09-29T22:53:14.349Z,13.30
2022-09-29T22:55:44.230Z,13.10
2022-09-29T22:58:11.309Z,13.10
2022-09-29T23:00:38.750Z,13.10
2022-09-29T23:03:06.002Z,13.10
2022-09-29T23:05:32.959Z,13.20
2022-09-29T23:07:59.901Z,13.20
2022-09-29T23:10:26.560Z,13.30
2022-09-29T23:12:53.246Z,13.30
2022-09-29T23:15:19.949Z,13.30
2022-09-29T23:17:47.188Z,13.40
2022-09-29T23:20:14.383Z,13.40
2022-09-29T23:22:41.114Z,13.40
2022-09-29T23:25:08.017Z,13.50
2022-09-29T23:27:35.076Z,13.50
2022-09-29T23:30:01.866Z,13.50
2022-09-29T23:32:28.509Z,13.50
2022-09-29T23:34:55.146Z,13.60
2022-09-29T23:37:21.910Z,13.60
2022-09-29T23:39:48.768Z,13.70
2022-09-29T23:42:15.634Z,13.70
2022-09-29T23:44:42.344Z,13.70
2022-09-29T23:47:08.960Z,13.70
2022-09-29T23:49:35.629Z,13.80
2022-09-29T23:52:04.470Z,13.80
2022-09-29T23:54:31.156Z,13.80
2022-09-29T23:56:58.508Z,13.90
2022-09-29T23:59:25.663Z,13.80
